MAYO2: W. D. Mayo Lock And Dam (L&D 14)

Data processed at Sat Mar 10 2018 23:30


All information presented herein is the property of the government of the United States of America and may be revised or deleted at any time without prior notice.
Dissemination of this information without the expressed written consent of the Public Affairs Office, Tulsa District U.S. Army Corps of Engineers is strictly prohibited.
These data are gathered electronically and, as presented, have not undergone any form of quality control. These data are not guaranteed to be valid or correct.
Go to home page.
Go to station list.

Upstream stations:

Downstream station:
Previous Day
Next Day
Current Day
    
SHEF ID:       MAYO2     W. D. Mayo Lock And Dam (L&D 14)
STATION TYPE:  NAVIGATION LOCK
Normal Pool:  Bottom =   411.00, Top =   413.00

               PRECIP ELEVATION   STORAGE   TW-ELEV LOCK-ELEV    INFLOW   RELEASE  AIR-TEMP  WIND-DIRWIND-SPEED REL-HUMID SOLAR-RAD   VOLTAGE  BAT-LOAD
                   in        ft     ac-ft        ft        ft       cfs       cfs         F       deg       mph         %      W/m2      volt      volt
              Ccp-Rev   Ccp-Rev   Ccp-Rev   Ccp-Rev   Ccp-Rev  Regi-Rev  Regi-Rev   Ccp-Rev   Ccp-Rev   Ccp-Rev   Ccp-Rev   Ccp-Rev   Ccp-Rev   Ccp-Rev
(US/Central)
03/08 00:00      0.00    411.78     13844    398.55    418.47     48932     50119     37.63    208.30      0.30     61.34      0.00     13.56     13.29
03/08 01:00      0.00    411.83     13919    398.80    418.78     55478     50216     34.77    204.10      0.60     70.44      0.00     13.56     13.29
03/08 02:00      0.00    411.93     14068    398.93    418.95     60056     64224     33.51    225.40      0.10     76.44      0.00     13.56     13.29
03/08 03:00      0.00    412.02     14202    398.99    419.07     63114     64333     32.07    224.50      0.80     84.01      0.00     13.56     13.29
03/08 04:00      0.00    412.13     14368    399.07    419.15     66106     64510     30.29    224.90      1.10     88.06      0.00     13.31     13.29
03/08 05:00      0.00    412.20     14474    399.12    419.21     66298     64667     29.14    221.40      1.10     90.35      0.00     13.55     13.29
03/08 06:00      0.00    412.27     14580    399.13    419.26     66369     64789     29.41    214.30      0.40     90.77      0.00     13.55     13.29
03/08 07:00      0.00    412.38     14749    399.17    419.30     66357     64945     28.81    204.20      2.50     90.19      2.40     13.55     13.29
03/08 08:00      0.00    412.46     14872    399.20    419.32     66704     64824     34.05    287.30      0.80     80.18    120.20     13.55     13.29
03/08 09:00      0.00    412.54     14996    399.21    419.36     66871     64963     40.96    309.40      1.50     65.89    312.40     13.56     13.29
03/08 10:00      0.00    412.66     15183    399.25    419.47     66964     65424     45.63    353.70      1.80     39.44    503.50     13.56     13.29
03/08 11:00      0.00    412.73     15292    399.26    419.50     66987     65589     48.27     32.20      1.50     36.41    646.80     13.56     13.29
03/08 12:00      0.00    412.83     15449    399.37    419.44     66515     65546     51.04    359.70      2.30     32.26    666.30     13.55     13.29
03/08 13:00      0.00    412.87     15513    399.40    433.27     65729     65668     53.80    260.30      4.40     26.44    704.20     13.56     13.29
03/08 14:00      0.00    412.78     15371    399.39    433.19     65430     65815     56.21    254.20      5.90     22.97    675.40     13.57     13.29
03/08 15:00      0.00    412.68     15214    399.39    433.07     64823     65650     57.76    259.80      4.60     22.82    651.10     13.56     13.29
03/08 16:00      0.00    412.67     15198    399.38    419.54     64350     65607     59.63    306.90      3.60     22.54    512.00     13.57     13.29
03/08 17:00      0.00    412.61     15105    399.38    419.51     64008     65546     60.71      8.50      1.60     22.14    311.10     13.57     13.29
03/08 18:00      0.00    412.54     14996    399.35    419.50     64816     65380     60.21     40.20      1.30     28.03    110.00     13.58     13.29
03/08 19:00      0.00    412.49     14919    399.32    419.48     64714     65189     55.17     52.60      0.90     39.36      0.00     13.58     13.29
03/08 20:00      0.00    412.41     14795    399.32    419.44     64066     65180     50.29    142.80      0.10     53.79      0.00     13.58     13.29
03/08 21:00      0.00    412.34     14688    399.32    419.38     64117     65285     46.53    214.70      0.40     56.33      0.00     13.58     13.29
03/08 22:00      0.00    412.30     14626    399.31    419.45     64324     65085     45.39     26.00      0.10     61.31      0.00     13.57     13.29
03/08 23:00      0.00    412.27     14580    399.28    419.40     63692     64876     45.59     26.40      1.10     63.50      0.00     13.57     13.29